createdAt,value
2023-02-27T00:00:19.092Z,1.30
2023-02-27T00:02:50.447Z,1.30
2023-02-27T00:05:19.407Z,1.20
2023-02-27T00:07:48.665Z,1.10
2023-02-27T00:10:16.940Z,1.20
2023-02-27T00:12:45.614Z,1.20
2023-02-27T00:15:15.629Z,1.10
2023-02-27T00:17:47.102Z,1.10
2023-02-27T00:20:22.233Z,1.10
2023-02-27T00:22:51.977Z,1.10
2023-02-27T00:25:20.605Z,1.10
2023-02-27T00:27:48.862Z,1.00
2023-02-27T00:30:17.649Z,1.00
2023-02-27T00:32:48.706Z,1.00
2023-02-27T00:35:16.591Z,1.00
2023-02-27T00:37:44.654Z,1.00
2023-02-27T00:40:15.002Z,0.90
2023-02-27T00:42:46.222Z,0.90
2023-02-27T00:45:14.203Z,0.90
2023-02-27T00:47:42.221Z,0.90
2023-02-27T00:50:14.465Z,1.00
2023-02-27T00:52:42.863Z,1.00
2023-02-27T00:55:11.696Z,1.00
2023-02-27T00:57:41.342Z,1.00
2023-02-27T01:00:11.406Z,0.90
2023-02-27T01:02:42.686Z,1.00
2023-02-27T01:05:14.304Z,1.00
2023-02-27T01:07:42.616Z,1.00
2023-02-27T01:10:12.869Z,0.90
2023-02-27T01:12:42.596Z,0.90
2023-02-27T01:15:13.777Z,0.90
2023-02-27T01:17:44.406Z,1.00
2023-02-27T01:20:13.931Z,0.90
2023-02-27T01:22:42.084Z,1.00
2023-02-27T01:25:11.022Z,0.90
2023-02-27T01:27:40.938Z,0.80
2023-02-27T01:30:12.647Z,0.80
2023-02-27T01:32:40.622Z,0.80
2023-02-27T01:35:09.187Z,0.80
2023-02-27T01:37:37.165Z,0.80
2023-02-27T01:40:07.991Z,0.80
2023-02-27T01:42:36.415Z,0.80
2023-02-27T01:45:30.836Z,0.80
2023-02-27T01:48:11.815Z,0.80
2023-02-27T01:50:44.994Z,0.80
2023-02-27T01:53:13.694Z,0.80
2023-02-27T01:55:42.051Z,0.80
2023-02-27T01:58:14.623Z,0.90
2023-02-27T02:00:44.452Z,0.90
2023-02-27T02:03:24.619Z,0.90
2023-02-27T02:05:56.652Z,0.80
2023-02-27T02:08:28.291Z,0.60
2023-02-27T02:11:00.235Z,0.70
2023-02-27T02:13:30.051Z,0.50
2023-02-27T02:16:12.459Z,0.40
2023-02-27T02:18:50.166Z,0.50
2023-02-27T02:21:55.441Z,0.30
2023-02-27T02:24:50.967Z,0.30
2023-02-27T02:27:36.979Z,0.20
2023-02-27T02:30:53.227Z,0.20
2023-02-27T02:33:52.459Z,0.30
2023-02-27T02:36:57.019Z,0.30
2023-02-27T02:40:09.610Z,0.30
2023-02-27T02:42:49.365Z,0.30
2023-02-27T02:45:31.846Z,0.30
2023-02-27T02:48:16.982Z,0.20
2023-02-27T02:51:00.143Z,0.20
2023-02-27T02:53:38.260Z,0.30
2023-02-27T02:56:15.914Z,0.10
2023-02-27T02:58:53.485Z,0.10
2023-02-27T03:01:29.986Z,0.10
2023-02-27T03:04:16.988Z,0.10
2023-02-27T03:06:53.930Z,0.10
2023-02-27T03:09:28.840Z,0.10
2023-02-27T03:12:00.060Z,0.10
2023-02-27T03:14:36.108Z,0.10
2023-02-27T03:17:09.724Z,0.00
2023-02-27T03:19:42.066Z,0.00
2023-02-27T03:22:12.252Z,0.00
2023-02-27T03:24:45.327Z,0.00
2023-02-27T03:27:15.732Z,0.00
2023-02-27T03:29:50.794Z,0.00
2023-02-27T03:32:22.823Z,0.00
2023-02-27T03:34:55.066Z,0.00
2023-02-27T03:37:31.337Z,0.00
2023-02-27T03:40:10.613Z,0.00
2023-02-27T03:42:42.899Z,-0.10
2023-02-27T03:45:19.704Z,-0.20
2023-02-27T03:47:48.648Z,-0.20
2023-02-27T03:50:17.350Z,-0.20
2023-02-27T03:52:53.939Z,-0.20
2023-02-27T03:55:30.971Z,-0.20
2023-02-27T03:57:59.165Z,-0.30
2023-02-27T04:00:29.825Z,-0.30
2023-02-27T04:03:00.793Z,-0.30
2023-02-27T04:05:38.700Z,-0.30
2023-02-27T04:08:38.624Z,-0.30
2023-02-27T04:11:36.322Z,-0.30
2023-02-27T04:14:35.933Z,-0.40
2023-02-27T04:17:37.093Z,-0.40
2023-02-27T04:20:32.739Z,-0.50
2023-02-27T04:23:05.742Z,-0.50
2023-02-27T04:25:42.354Z,-0.50
2023-02-27T04:28:19.854Z,-0.50
2023-02-27T04:31:10.729Z,-0.50
2023-02-27T04:33:46.749Z,-0.50
2023-02-27T04:36:23.337Z,-0.40
2023-02-27T04:39:00.654Z,-0.40
2023-02-27T04:41:33.625Z,-0.40
2023-02-27T04:44:02.975Z,-0.40
2023-02-27T04:46:33.098Z,-0.40
2023-02-27T04:49:09.019Z,-0.40
2023-02-27T04:51:41.295Z,-0.30
2023-02-27T04:54:14.265Z,-0.20
2023-02-27T04:56:54.419Z,-0.20
2023-02-27T04:59:25.996Z,-0.30
2023-02-27T05:02:00.901Z,-0.30
2023-02-27T05:04:42.424Z,-0.30
2023-02-27T05:07:23.287Z,-0.30
2023-02-27T05:10:00.790Z,-0.40
2023-02-27T05:12:39.059Z,-0.40
2023-02-27T05:15:19.083Z,-0.40
2023-02-27T05:18:27.990Z,-0.40
2023-02-27T05:21:22.369Z,-0.40
2023-02-27T05:24:10.620Z,-0.50
2023-02-27T05:26:56.327Z,-0.50
2023-02-27T05:29:39.896Z,-0.50
2023-02-27T05:32:36.051Z,-0.50
2023-02-27T05:35:21.277Z,-0.60
2023-02-27T05:38:02.251Z,-0.60
2023-02-27T05:43:58.261Z,-0.60
2023-02-27T05:46:46.770Z,-0.60
2023-02-27T05:49:31.746Z,-0.60
2023-02-27T05:52:08.646Z,-0.50
2023-02-27T05:54:45.688Z,-0.40
2023-02-27T05:57:31.197Z,-0.40
2023-02-27T06:00:20.086Z,-0.30
2023-02-27T06:03:07.037Z,-0.20
2023-02-27T06:05:45.413Z,-0.10
2023-02-27T06:08:21.112Z,-0.10
2023-02-27T06:10:54.061Z,-0.10
2023-02-27T06:13:23.154Z,0.00
2023-02-27T06:15:54.148Z,0.10
2023-02-27T06:18:23.063Z,0.10
2023-02-27T06:20:51.358Z,0.10
2023-02-27T06:23:20.868Z,0.10
2023-02-27T06:25:49.881Z,0.10
2023-02-27T06:28:19.242Z,0.20
2023-02-27T06:30:47.246Z,0.20
2023-02-27T06:33:16.411Z,0.20
2023-02-27T06:35:46.154Z,0.20
2023-02-27T06:38:17.220Z,0.20
2023-02-27T06:40:45.218Z,0.20
2023-02-27T06:43:15.176Z,0.20
2023-02-27T06:45:47.515Z,0.20
2023-02-27T06:48:15.581Z,0.20
2023-02-27T06:50:43.594Z,0.20
2023-02-27T06:53:11.566Z,0.20
2023-02-27T06:55:42.237Z,0.10
2023-02-27T06:58:10.805Z,0.00
2023-02-27T07:00:38.836Z,-0.10
2023-02-27T07:03:08.652Z,-0.20
2023-02-27T07:05:36.957Z,-0.20
2023-02-27T07:08:05.268Z,-0.20
2023-02-27T07:10:33.312Z,-0.20
2023-02-27T07:13:03.474Z,-0.20
2023-02-27T07:15:33.471Z,-0.20
2023-02-27T07:18:01.573Z,-0.20
2023-02-27T07:20:30.953Z,-0.20
2023-02-27T07:22:59.134Z,-0.20
2023-02-27T07:25:27.167Z,-0.10
2023-02-27T07:27:57.210Z,-0.10
2023-02-27T07:30:25.206Z,-0.10
2023-02-27T07:32:55.052Z,0.00
2023-02-27T07:35:23.028Z,0.00
2023-02-27T07:37:52.679Z,0.10
2023-02-27T07:40:25.093Z,0.10
2023-02-27T07:42:53.307Z,0.20
2023-02-27T07:45:22.415Z,0.20
2023-02-27T07:47:53.269Z,0.20
2023-02-27T07:50:21.463Z,0.20
2023-02-27T07:52:49.418Z,0.30
2023-02-27T07:55:18.982Z,0.30
2023-02-27T07:57:47.177Z,0.40
2023-02-27T08:00:15.751Z,0.40
2023-02-27T08:02:43.836Z,0.50
2023-02-27T08:05:11.886Z,0.60
2023-02-27T08:07:40.875Z,0.60
2023-02-27T08:10:09.562Z,0.70
2023-02-27T08:12:39.354Z,0.70
2023-02-27T08:15:08.862Z,0.80
2023-02-27T08:17:36.826Z,0.80
2023-02-27T08:20:08.649Z,0.90
2023-02-27T08:22:36.597Z,0.90
2023-02-27T08:25:07.036Z,1.10
2023-02-27T08:27:35.241Z,1.20
2023-02-27T08:30:05.949Z,1.30
2023-02-27T08:32:34.781Z,1.30
2023-02-27T08:35:02.932Z,1.50
2023-02-27T08:37:31.012Z,1.50
2023-02-27T08:39:59.210Z,1.60
2023-02-27T08:42:27.177Z,1.70
2023-02-27T08:44:56.462Z,1.70
2023-02-27T08:47:26.214Z,1.70
2023-02-27T08:49:54.184Z,1.70
2023-02-27T08:52:24.643Z,1.80
2023-02-27T08:54:55.590Z,1.90
2023-02-27T08:57:23.569Z,1.90
2023-02-27T08:59:51.489Z,2.00
2023-02-27T09:02:19.550Z,2.10
2023-02-27T09:04:48.965Z,2.30
2023-02-27T09:07:16.855Z,2.40
2023-02-27T09:09:45.098Z,2.30
2023-02-27T09:12:13.333Z,2.30
2023-02-27T09:14:41.452Z,2.40
2023-02-27T09:17:09.516Z,2.40
2023-02-27T09:19:37.362Z,2.50
2023-02-27T09:22:06.618Z,2.60
2023-02-27T09:24:34.525Z,2.70
2023-02-27T09:27:08.306Z,2.80
2023-02-27T09:29:36.356Z,3.00
2023-02-27T09:32:05.737Z,3.00
2023-02-27T09:34:33.978Z,3.00
2023-02-27T09:37:02.741Z,2.90
2023-02-27T09:39:32.279Z,2.80
2023-02-27T09:42:04.320Z,3.00
2023-02-27T09:44:46.281Z,3.00
2023-02-27T09:47:19.178Z,2.90
2023-02-27T09:50:02.634Z,2.80
2023-02-27T09:52:34.157Z,2.90
2023-02-27T09:55:04.182Z,2.90
2023-02-27T09:57:44.772Z,3.00
2023-02-27T10:00:45.491Z,3.00
2023-02-27T10:03:27.915Z,3.00
2023-02-27T10:06:18.218Z,2.90
2023-02-27T10:08:52.465Z,3.10
2023-02-27T10:11:31.350Z,3.30
2023-02-27T10:14:05.152Z,3.50
2023-02-27T10:16:34.970Z,3.50
2023-02-27T10:19:08.382Z,3.40
2023-02-27T10:21:43.037Z,3.60
2023-02-27T10:24:27.547Z,3.70
2023-02-27T10:26:59.057Z,3.80
2023-02-27T10:29:31.171Z,3.90
2023-02-27T10:32:03.509Z,3.90
2023-02-27T10:34:35.532Z,3.80
2023-02-27T10:37:06.300Z,3.70
2023-02-27T10:39:48.924Z,3.50
2023-02-27T10:42:19.092Z,3.60
2023-02-27T10:44:53.933Z,3.70
2023-02-27T10:47:24.731Z,3.60
2023-02-27T10:49:54.608Z,3.80
2023-02-27T10:52:28.380Z,3.80
2023-02-27T10:55:30.378Z,3.80
2023-02-27T10:58:02.476Z,4.10
2023-02-27T11:00:42.179Z,4.20
2023-02-27T11:03:21.203Z,4.30
2023-02-27T11:05:55.863Z,4.20
2023-02-27T11:08:25.741Z,4.40
2023-02-27T11:11:01.076Z,4.90
2023-02-27T11:13:33.280Z,5.80
2023-02-27T11:16:09.784Z,6.80
2023-02-27T11:18:39.420Z,8.40
2023-02-27T11:21:22.491Z,10.10
2023-02-27T11:23:59.706Z,11.90
2023-02-27T11:26:34.159Z,13.80
2023-02-27T11:29:09.194Z,13.80
2023-02-27T11:31:38.659Z,14.70
2023-02-27T11:34:08.331Z,15.90
2023-02-27T11:36:41.545Z,16.00
2023-02-27T11:39:23.770Z,17.00
2023-02-27T11:41:52.080Z,16.10
2023-02-27T11:44:38.623Z,15.90
2023-02-27T11:47:22.368Z,15.80
2023-02-27T11:50:34.279Z,16.80
2023-02-27T11:53:15.545Z,17.10
2023-02-27T11:55:45.167Z,17.10
2023-02-27T11:58:16.420Z,17.20
2023-02-27T12:00:51.687Z,15.70
2023-02-27T12:03:25.398Z,14.10
2023-02-27T12:05:57.006Z,13.00
2023-02-27T12:08:33.961Z,13.10
2023-02-27T12:11:13.862Z,13.20
2023-02-27T12:13:45.843Z,14.10
2023-02-27T12:16:22.166Z,14.90
2023-02-27T12:18:53.192Z,14.70
2023-02-27T12:21:24.544Z,15.30
2023-02-27T12:23:57.993Z,15.50
2023-02-27T12:26:30.202Z,15.30
2023-02-27T12:29:01.096Z,15.00
2023-02-27T12:31:42.127Z,15.40
2023-02-27T12:34:21.252Z,16.20
2023-02-27T12:36:49.590Z,14.60
2023-02-27T12:39:20.587Z,11.90
2023-02-27T12:42:15.882Z,11.10
2023-02-27T12:44:58.497Z,11.00
2023-02-27T12:47:38.424Z,11.30
2023-02-27T12:50:11.478Z,11.90
2023-02-27T12:52:56.102Z,12.80
2023-02-27T12:55:28.347Z,13.80
2023-02-27T12:58:24.328Z,14.70
2023-02-27T13:00:59.727Z,15.80
2023-02-27T13:03:36.060Z,16.40
2023-02-27T13:06:13.061Z,16.10
2023-02-27T13:08:54.733Z,15.10
2023-02-27T13:11:37.444Z,13.70
2023-02-27T13:14:08.416Z,12.60
2023-02-27T13:16:43.127Z,11.80
2023-02-27T13:19:19.095Z,11.40
2023-02-27T13:21:52.453Z,10.60
2023-02-27T13:24:26.939Z,9.20
2023-02-27T13:27:03.854Z,8.60
2023-02-27T13:29:45.215Z,8.30
2023-02-27T13:35:08.864Z,7.30
2023-02-27T13:37:58.424Z,6.90
2023-02-27T13:40:40.528Z,6.90
2023-02-27T13:43:40.572Z,7.00
2023-02-27T13:46:23.364Z,6.90
2023-02-27T13:48:53.724Z,6.70
2023-02-27T13:51:50.861Z,6.40
2023-02-27T13:54:41.684Z,6.40
2023-02-27T13:57:24.987Z,6.30
2023-02-27T14:00:09.077Z,6.20
2023-02-27T14:02:57.944Z,6.20
2023-02-27T14:05:31.268Z,5.90
2023-02-27T14:08:06.729Z,5.90
2023-02-27T14:10:37.152Z,5.90
2023-02-27T14:13:05.381Z,6.00
2023-02-27T14:15:57.840Z,6.00
2023-02-27T14:19:02.343Z,6.00
2023-02-27T14:21:57.210Z,5.80
2023-02-27T14:24:33.279Z,5.80
2023-02-27T14:27:03.097Z,5.80
2023-02-27T14:29:34.030Z,5.90
2023-02-27T14:32:07.200Z,6.00
2023-02-27T14:34:39.835Z,5.90
2023-02-27T14:37:15.522Z,6.00
2023-02-27T14:39:51.182Z,5.70
2023-02-27T14:42:47.987Z,5.60
2023-02-27T14:45:24.242Z,5.40
2023-02-27T14:47:54.412Z,5.10
2023-02-27T14:50:26.730Z,4.90
2023-02-27T14:52:56.062Z,5.00
2023-02-27T14:55:34.062Z,5.00
2023-02-27T14:58:12.350Z,5.00
2023-02-27T15:00:44.736Z,5.20
2023-02-27T15:03:20.644Z,5.00
2023-02-27T15:05:50.522Z,5.00
2023-02-27T15:08:22.493Z,5.10
2023-02-27T15:10:54.416Z,4.90
2023-02-27T15:13:27.085Z,4.70
2023-02-27T15:16:20.629Z,4.70
2023-02-27T15:18:53.291Z,4.80
2023-02-27T15:21:27.534Z,4.90
2023-02-27T15:23:58.498Z,5.00
2023-02-27T15:26:32.648Z,5.00
2023-02-27T15:29:01.016Z,5.00
2023-02-27T15:31:32.373Z,4.90
2023-02-27T15:34:02.969Z,4.80
2023-02-27T15:36:34.162Z,4.90
2023-02-27T15:39:17.174Z,4.90
2023-02-27T15:41:50.398Z,4.80
2023-02-27T15:44:22.122Z,4.80
2023-02-27T15:46:51.514Z,4.90
2023-02-27T15:49:22.401Z,4.90
2023-02-27T15:52:00.776Z,5.00
2023-02-27T15:54:35.428Z,5.00
2023-02-27T15:57:09.035Z,5.00
2023-02-27T15:59:50.152Z,5.00
2023-02-27T16:02:22.722Z,5.00
2023-02-27T16:04:53.490Z,5.00
2023-02-27T16:07:33.182Z,4.90
2023-02-27T16:10:07.716Z,4.90
2023-02-27T16:12:41.957Z,4.90
2023-02-27T16:15:25.571Z,4.90
2023-02-27T16:17:59.166Z,4.80
2023-02-27T16:20:44.372Z,4.80
2023-02-27T16:23:26.143Z,4.70
2023-02-27T16:26:05.335Z,4.60
2023-02-27T16:28:40.313Z,4.50
2023-02-27T16:31:26.108Z,4.50
2023-02-27T16:33:58.800Z,4.50
2023-02-27T16:36:28.895Z,4.50
2023-02-27T16:38:59.357Z,4.50
2023-02-27T16:41:29.030Z,4.40
2023-02-27T16:43:59.032Z,4.40
2023-02-27T16:46:27.960Z,4.30
2023-02-27T16:49:14.242Z,4.30
2023-02-27T16:51:48.076Z,4.30
2023-02-27T16:54:16.853Z,4.20
2023-02-27T16:56:47.406Z,4.10
2023-02-27T16:59:29.998Z,4.10
2023-02-27T17:02:04.763Z,4.10
2023-02-27T17:04:33.885Z,4.10
2023-02-27T17:07:06.628Z,4.00
2023-02-27T17:09:38.576Z,4.00
2023-02-27T17:12:08.288Z,4.00
2023-02-27T17:14:38.586Z,4.00
2023-02-27T17:17:07.817Z,4.00
2023-02-27T17:19:36.452Z,4.00
2023-02-27T17:22:05.031Z,4.00
2023-02-27T17:24:33.725Z,4.00
2023-02-27T17:27:01.982Z,4.00
2023-02-27T17:29:33.211Z,4.00
2023-02-27T17:32:05.575Z,3.90
2023-02-27T17:34:36.995Z,3.80
2023-02-27T17:37:11.302Z,3.80
2023-02-27T17:39:42.641Z,3.80
2023-02-27T17:42:12.972Z,3.80
2023-02-27T17:44:43.504Z,3.70
2023-02-27T17:47:14.918Z,3.70
2023-02-27T17:49:48.217Z,3.70
2023-02-27T17:52:20.140Z,3.70
2023-02-27T17:54:48.933Z,3.70
2023-02-27T17:57:19.627Z,3.70
2023-02-27T17:59:51.053Z,3.70
2023-02-27T18:02:20.643Z,3.70
2023-02-27T18:04:48.911Z,3.60
2023-02-27T18:07:16.972Z,3.60
2023-02-27T18:09:45.695Z,3.60
2023-02-27T18:12:16.164Z,3.60
2023-02-27T18:14:44.221Z,3.60
2023-02-27T18:17:13.054Z,3.50
2023-02-27T18:19:46.494Z,3.50
2023-02-27T18:22:15.393Z,3.40
2023-02-27T18:24:43.418Z,3.40
2023-02-27T18:27:11.607Z,3.40
2023-02-27T18:29:39.731Z,3.50
2023-02-27T18:32:09.688Z,3.40
2023-02-27T18:34:37.704Z,3.40
2023-02-27T18:37:07.314Z,3.40
2023-02-27T18:39:35.486Z,3.30
2023-02-27T18:42:05.339Z,3.30
2023-02-27T18:44:34.645Z,3.30
2023-02-27T18:47:02.741Z,3.20
2023-02-27T18:49:31.328Z,3.20
2023-02-27T18:52:00.951Z,3.20
2023-02-27T18:54:38.586Z,3.20
2023-02-27T18:57:12.687Z,3.10
2023-02-27T18:59:42.299Z,3.20
2023-02-27T19:02:18.949Z,3.10
2023-02-27T19:04:50.504Z,3.10
2023-02-27T19:07:25.613Z,3.20
2023-02-27T19:09:56.609Z,3.20
2023-02-27T19:12:28.897Z,3.20
2023-02-27T19:14:57.570Z,3.20
2023-02-27T19:17:28.748Z,3.20
2023-02-27T19:19:57.325Z,3.30
2023-02-27T19:22:34.967Z,3.20
2023-02-27T19:25:06.709Z,3.30
2023-02-27T19:27:41.839Z,3.20
2023-02-27T19:30:17.959Z,3.20
2023-02-27T19:32:50.549Z,3.00
2023-02-27T19:35:32.419Z,3.10
2023-02-27T19:38:00.940Z,3.00
2023-02-27T19:40:39.855Z,3.00
2023-02-27T19:43:18.029Z,3.00
2023-02-27T19:45:49.453Z,3.00
2023-02-27T19:48:36.436Z,3.00
2023-02-27T19:51:10.547Z,3.00
2023-02-27T19:53:43.533Z,2.80
2023-02-27T19:56:15.991Z,2.90
2023-02-27T19:58:52.083Z,2.90
2023-02-27T20:01:24.716Z,2.90
2023-02-27T20:03:53.389Z,2.80
2023-02-27T20:06:26.317Z,2.80
2023-02-27T20:09:03.031Z,2.80
2023-02-27T20:11:39.867Z,2.80
2023-02-27T20:14:11.847Z,2.70
2023-02-27T20:16:43.679Z,2.80
2023-02-27T20:19:18.599Z,2.80
2023-02-27T20:21:48.906Z,2.70
2023-02-27T20:24:19.137Z,2.80
2023-02-27T20:26:55.620Z,2.80
2023-02-27T20:29:28.925Z,2.80
2023-02-27T20:32:02.751Z,2.80
2023-02-27T20:34:39.189Z,2.70
2023-02-27T20:37:09.503Z,2.70
2023-02-27T20:39:38.367Z,2.60
2023-02-27T20:42:08.644Z,2.60
2023-02-27T20:44:37.565Z,2.60
2023-02-27T20:47:10.907Z,2.70
2023-02-27T20:49:40.663Z,2.80
2023-02-27T20:52:11.204Z,2.80
2023-02-27T20:54:46.009Z,2.80
2023-02-27T20:57:20.680Z,2.80
2023-02-27T20:59:51.561Z,2.70
2023-02-27T21:02:23.501Z,2.70
2023-02-27T21:04:57.582Z,2.70
2023-02-27T21:07:34.734Z,2.60
2023-02-27T21:10:12.716Z,2.60
2023-02-27T21:12:50.157Z,2.60
2023-02-27T21:15:21.388Z,2.60
2023-02-27T21:17:52.831Z,2.60
2023-02-27T21:20:21.438Z,2.50
2023-02-27T21:23:02.059Z,2.50
2023-02-27T21:25:35.053Z,2.50
2023-02-27T21:28:06.632Z,2.50
2023-02-27T21:30:36.251Z,2.50
2023-02-27T21:33:05.078Z,2.50
2023-02-27T21:35:35.666Z,2.40
2023-02-27T21:38:10.199Z,2.40
2023-02-27T21:40:44.394Z,2.40
2023-02-27T21:43:14.560Z,2.40
2023-02-27T21:45:51.950Z,2.40
2023-02-27T21:48:25.491Z,2.40
2023-02-27T21:51:04.434Z,2.40
2023-02-27T21:53:36.803Z,2.50
2023-02-27T21:56:12.053Z,2.50
2023-02-27T21:58:46.577Z,2.50
2023-02-27T22:01:27.466Z,2.50
2023-02-27T22:04:04.259Z,2.60
2023-02-27T22:06:36.868Z,2.60
2023-02-27T22:09:13.233Z,2.60
2023-02-27T22:11:49.998Z,2.60
2023-02-27T22:14:26.465Z,2.60
2023-02-27T22:16:58.084Z,2.50
2023-02-27T22:19:26.389Z,2.50
2023-02-27T22:21:56.524Z,2.50
2023-02-27T22:24:26.909Z,2.50
2023-02-27T22:26:58.370Z,2.50
2023-02-27T22:29:30.084Z,2.50
2023-02-27T22:31:58.954Z,2.70
2023-02-27T22:34:29.897Z,2.70
2023-02-27T22:37:01.413Z,2.70
2023-02-27T22:39:29.860Z,2.70
2023-02-27T22:41:58.411Z,2.60
2023-02-27T22:44:29.611Z,2.60
2023-02-27T22:46:58.122Z,2.60
2023-02-27T22:49:28.204Z,2.50
2023-02-27T22:51:59.870Z,2.50
2023-02-27T22:54:31.627Z,2.40
2023-02-27T22:57:00.148Z,2.30
2023-02-27T22:59:35.314Z,2.30
2023-02-27T23:02:03.726Z,2.20
2023-02-27T23:04:32.215Z,2.10
2023-02-27T23:07:03.576Z,2.10
2023-02-27T23:09:32.245Z,2.00
2023-02-27T23:12:02.266Z,1.90
2023-02-27T23:14:33.693Z,1.90
2023-02-27T23:17:01.670Z,1.80
2023-02-27T23:19:29.623Z,1.70
2023-02-27T23:21:57.507Z,1.60
2023-02-27T23:24:25.392Z,1.60
2023-02-27T23:26:53.764Z,1.60
2023-02-27T23:29:22.179Z,1.60
2023-02-27T23:31:51.576Z,1.50
2023-02-27T23:34:21.759Z,1.40
2023-02-27T23:36:52.380Z,1.40
2023-02-27T23:39:21.181Z,1.40
2023-02-27T23:41:49.305Z,1.40
2023-02-27T23:44:17.271Z,1.40
2023-02-27T23:46:45.181Z,1.30
2023-02-27T23:49:14.545Z,1.30
2023-02-27T23:51:42.550Z,1.30
2023-02-27T23:54:10.524Z,1.30
2023-02-27T23:56:38.790Z,1.30
2023-02-27T23:59:08.216Z,1.30
